sensor_id;sensor_type;location;lat;lon;timestamp;pressure;altitude;pressure_sealevel;temperature;humidity
13422;BME280;6782;55.904;13.396;2023-02-26T00:00:09;62769.09;;;-143.06;100.00
13422;BME280;6782;55.904;13.396;2023-02-26T00:02:40;62769.09;;;-143.06;100.00
13422;BME280;6782;55.904;13.396;2023-02-26T00:05:13;62769.09;;;-143.06;100.00
13422;BME280;6782;55.904;13.396;2023-02-26T00:07:41;62769.09;;;-143.06;100.00
13422;BME280;6782;55.904;13.396;2023-02-26T00:10:12;62769.09;;;-143.06;100.00
13422;BME280;6782;55.904;13.396;2023-02-26T00:12:41;62769.09;;;-143.06;100.00
13422;BME280;6782;55.904;13.396;2023-02-26T00:15:10;62769.09;;;-143.06;100.00
13422;BME280;6782;55.904;13.396;2023-02-26T00:17:46;62769.09;;;-143.06;100.00
13422;BME280;6782;55.904;13.396;2023-02-26T00:20:19;62769.09;;;-143.06;100.00
13422;BME280;6782;55.904;13.396;2023-02-26T00:22:47;62769.09;;;-143.06;100.00
13422;BME280;6782;55.904;13.396;2023-02-26T00:25:15;62769.09;;;-143.06;100.00
13422;BME280;6782;55.904;13.396;2023-02-26T00:27:43;62769.09;;;-143.06;100.00
13422;BME280;6782;55.904;13.396;2023-02-26T00:30:12;62769.09;;;-143.06;100.00
13422;BME280;6782;55.904;13.396;2023-02-26T00:32:40;62769.09;;;-143.06;100.00
13422;BME280;6782;55.904;13.396;2023-02-26T00:35:12;62769.09;;;-143.06;100.00
13422;BME280;6782;55.904;13.396;2023-02-26T00:40:44;100605.06;;;-3.17;100.00
13422;BME280;6782;55.904;13.396;2023-02-26T00:43:19;100625.03;;;-3.09;100.00
13422;BME280;6782;55.904;13.396;2023-02-26T00:45:54;100646.59;;;-3.07;100.00
13422;BME280;6782;55.904;13.396;2023-02-26T00:48:37;100662.34;;;-2.98;100.00
13422;BME280;6782;55.904;13.396;2023-02-26T00:51:12;100669.34;;;-2.94;100.00
13422;BME280;6782;55.904;13.396;2023-02-26T00:53:50;100668.53;;;-2.93;100.00
13422;BME280;6782;55.904;13.396;2023-02-26T00:56:23;100667.63;;;-2.95;100.00
13422;BME280;6782;55.904;13.396;2023-02-26T00:58:50;100678.00;;;-2.92;100.00
13422;BME280;6782;55.904;13.396;2023-02-26T01:01:17;100665.75;;;-2.99;100.00
13422;BME280;6782;55.904;13.396;2023-02-26T01:03:45;100654.41;;;-3.06;100.00
13422;BME280;6782;55.904;13.396;2023-02-26T01:06:16;100647.16;;;-3.18;100.00
13422;BME280;6782;55.904;13.396;2023-02-26T01:08:50;100662.81;;;-3.11;100.00
13422;BME280;6782;55.904;13.396;2023-02-26T01:11:20;100654.78;;;-3.21;100.00
13422;BME280;6782;55.904;13.396;2023-02-26T01:13:50;100665.63;;;-3.32;100.00
13422;BME280;6782;55.904;13.396;2023-02-26T01:16:20;100678.56;;;-3.31;100.00
13422;BME280;6782;55.904;13.396;2023-02-26T01:18:55;100714.84;;;-3.25;100.00
13422;BME280;6782;55.904;13.396;2023-02-26T01:21:27;100686.81;;;-3.41;100.00
13422;BME280;6782;55.904;13.396;2023-02-26T01:24:00;100710.16;;;-3.36;100.00
13422;BME280;6782;55.904;13.396;2023-02-26T01:26:30;100732.75;;;-3.29;100.00
13422;BME280;6782;55.904;13.396;2023-02-26T01:29:00;100739.50;;;-3.33;100.00
13422;BME280;6782;55.904;13.396;2023-02-26T01:31:38;100733.44;;;-3.35;100.00
13422;BME280;6782;55.904;13.396;2023-02-26T01:34:13;100754.34;;;-3.26;100.00
13422;BME280;6782;55.904;13.396;2023-02-26T01:36:48;100759.31;;;-3.32;100.00
13422;BME280;6782;55.904;13.396;2023-02-26T01:39:24;100764.38;;;-3.35;100.00
13422;BME280;6782;55.904;13.396;2023-02-26T01:41:57;100762.50;;;-3.39;100.00
13422;BME280;6782;55.904;13.396;2023-02-26T01:44:31;100761.53;;;-3.42;100.00
13422;BME280;6782;55.904;13.396;2023-02-26T01:47:09;100764.91;;;-3.45;100.00
13422;BME280;6782;55.904;13.396;2023-02-26T01:49:41;100751.91;;;-3.48;100.00
13422;BME280;6782;55.904;13.396;2023-02-26T01:55:09;100782.59;;;-3.29;100.00
13422;BME280;6782;55.904;13.396;2023-02-26T01:57:36;100796.69;;;-3.19;100.00
13422;BME280;6782;55.904;13.396;2023-02-26T02:00:08;100774.81;;;-3.30;100.00
13422;BME280;6782;55.904;13.396;2023-02-26T02:02:35;100787.69;;;-3.32;100.00
13422;BME280;6782;55.904;13.396;2023-02-26T02:05:08;100804.19;;;-3.27;100.00
13422;BME280;6782;55.904;13.396;2023-02-26T02:07:38;100792.88;;;-3.30;100.00
13422;BME280;6782;55.904;13.396;2023-02-26T02:10:06;100798.81;;;-3.33;100.00
13422;BME280;6782;55.904;13.396;2023-02-26T02:12:37;100810.88;;;-3.32;100.00
13422;BME280;6782;55.904;13.396;2023-02-26T02:15:12;100810.88;;;-3.32;100.00
13422;BME280;6782;55.904;13.396;2023-02-26T02:17:49;100807.28;;;-3.37;100.00
13422;BME280;6782;55.904;13.396;2023-02-26T02:20:45;100819.53;;;-3.30;100.00
13422;BME280;6782;55.904;13.396;2023-02-26T02:23:21;100811.66;;;-3.34;100.00
13422;BME280;6782;55.904;13.396;2023-02-26T02:26:16;100830.72;;;-3.29;100.00
13422;BME280;6782;55.904;13.396;2023-02-26T02:29:02;100824.47;;;-3.36;100.00
13422;BME280;6782;55.904;13.396;2023-02-26T02:31:36;100838.28;;;-3.34;100.00
13422;BME280;6782;55.904;13.396;2023-02-26T02:34:12;100841.72;;;-3.35;100.00
13422;BME280;6782;55.904;13.396;2023-02-26T02:36:48;100830.41;;;-3.38;100.00
13422;BME280;6782;55.904;13.396;2023-02-26T02:39:22;100842.59;;;-3.34;100.00
13422;BME280;6782;55.904;13.396;2023-02-26T02:41:54;100840.72;;;-3.38;100.00
13422;BME280;6782;55.904;13.396;2023-02-26T02:44:25;100837.88;;;-3.46;100.00
13422;BME280;6782;55.904;13.396;2023-02-26T02:46:57;100849.97;;;-3.45;100.00
13422;BME280;6782;55.904;13.396;2023-02-26T02:49:28;100856.78;;;-3.47;100.00
13422;BME280;6782;55.904;13.396;2023-02-26T02:52:01;100857.69;;;-3.45;100.00
13422;BME280;6782;55.904;13.396;2023-02-26T02:54:36;100865.44;;;-3.45;100.00
13422;BME280;6782;55.904;13.396;2023-02-26T02:57:12;100874.09;;;-3.43;100.00
13422;BME280;6782;55.904;13.396;2023-02-26T02:59:43;100875.63;;;-3.48;100.00
13422;BME280;6782;55.904;13.396;2023-02-26T03:02:18;100887.84;;;-3.42;100.00
13422;BME280;6782;55.904;13.396;2023-02-26T03:04:45;100887.78;;;-3.44;100.00
13422;BME280;6782;55.904;13.396;2023-02-26T03:07:13;100889.25;;;-3.52;100.00
13422;BME280;6782;55.904;13.396;2023-02-26T03:09:41;100906.56;;;-3.48;100.00
13422;BME280;6782;55.904;13.396;2023-02-26T03:12:09;100928.22;;;-3.43;100.00
13422;BME280;6782;55.904;13.396;2023-02-26T03:14:36;100911.50;;;-3.54;100.00
13422;BME280;6782;55.904;13.396;2023-02-26T03:17:22;100921.59;;;-3.60;100.00
13422;BME280;6782;55.904;13.396;2023-02-26T03:20:08;100928.38;;;-3.62;100.00
13422;BME280;6782;55.904;13.396;2023-02-26T03:22:44;100937.16;;;-3.57;100.00
13422;BME280;6782;55.904;13.396;2023-02-26T03:25:17;100931.78;;;-3.63;100.00
13422;BME280;6782;55.904;13.396;2023-02-26T03:27:58;100937.75;;;-3.64;100.00
13422;BME280;6782;55.904;13.396;2023-02-26T03:30:33;100930.63;;;-3.71;100.00
13422;BME280;6782;55.904;13.396;2023-02-26T03:33:09;100948.78;;;-3.68;100.00
13422;BME280;6782;55.904;13.396;2023-02-26T03:35:46;100952.19;;;-3.69;100.00
13422;BME280;6782;55.904;13.396;2023-02-26T03:38:22;100952.94;;;-3.71;100.00
13422;BME280;6782;55.904;13.396;2023-02-26T03:40:55;100950.19;;;-3.76;100.00
13422;BME280;6782;55.904;13.396;2023-02-26T03:43:29;100964.94;;;-3.72;100.00
13422;BME280;6782;55.904;13.396;2023-02-26T03:46:02;100973.50;;;-3.73;100.00
13422;BME280;6782;55.904;13.396;2023-02-26T03:48:34;100974.19;;;-3.77;100.00
13422;BME280;6782;55.904;13.396;2023-02-26T03:51:05;100972.47;;;-3.78;100.00
13422;BME280;6782;55.904;13.396;2023-02-26T03:53:38;100978.50;;;-3.77;100.00
13422;BME280;6782;55.904;13.396;2023-02-26T03:56:14;100995.16;;;-3.68;100.00
13422;BME280;6782;55.904;13.396;2023-02-26T03:58:43;100996.22;;;-3.63;100.00
13422;BME280;6782;55.904;13.396;2023-02-26T04:01:15;101000.53;;;-3.62;100.00
13422;BME280;6782;55.904;13.396;2023-02-26T04:03:49;100995.16;;;-3.68;100.00
13422;BME280;6782;55.904;13.396;2023-02-26T04:06:20;101003.09;;;-3.62;100.00
13422;BME280;6782;55.904;13.396;2023-02-26T04:08:48;101007.56;;;-3.58;100.00
13422;BME280;6782;55.904;13.396;2023-02-26T04:11:17;101011.03;;;-3.57;100.00
13422;BME280;6782;55.904;13.396;2023-02-26T04:13:45;101005.94;;;-3.56;100.00
13422;BME280;6782;55.904;13.396;2023-02-26T04:16:14;101021.63;;;-3.50;100.00
13422;BME280;6782;55.904;13.396;2023-02-26T04:18:41;101021.84;;;-3.44;100.00
13422;BME280;6782;55.904;13.396;2023-02-26T04:21:11;101021.84;;;-3.44;100.00
13422;BME280;6782;55.904;13.396;2023-02-26T04:23:39;101029.69;;;-3.41;100.00
13422;BME280;6782;55.904;13.396;2023-02-26T04:26:06;101037.41;;;-3.41;100.00
13422;BME280;6782;55.904;13.396;2023-02-26T04:28:33;101034.81;;;-3.42;100.00
13422;BME280;6782;55.904;13.396;2023-02-26T04:31:03;101039.19;;;-3.40;100.00
13422;BME280;6782;55.904;13.396;2023-02-26T04:33:31;101027.22;;;-3.38;100.00
13422;BME280;6782;55.904;13.396;2023-02-26T04:35:59;101046.19;;;-3.36;100.00
13422;BME280;6782;55.904;13.396;2023-02-26T04:38:27;101049.81;;;-3.31;100.00
13422;BME280;6782;55.904;13.396;2023-02-26T04:40:55;101046.31;;;-3.33;100.00
13422;BME280;6782;55.904;13.396;2023-02-26T04:43:22;101045.28;;;-3.38;100.00
13422;BME280;6782;55.904;13.396;2023-02-26T04:45:53;101043.31;;;-3.45;100.00
13422;BME280;6782;55.904;13.396;2023-02-26T04:48:20;101057.13;;;-3.43;100.00
13422;BME280;6782;55.904;13.396;2023-02-26T04:50:47;101061.50;;;-3.40;100.00
13422;BME280;6782;55.904;13.396;2023-02-26T04:53:14;101070.88;;;-3.42;100.00
13422;BME280;6782;55.904;13.396;2023-02-26T04:55:46;101072.88;;;-3.35;100.00
13422;BME280;6782;55.904;13.396;2023-02-26T04:58:14;101066.78;;;-3.37;100.00
13422;BME280;6782;55.904;13.396;2023-02-26T05:00:42;101085.03;;;-3.31;100.00
13422;BME280;6782;55.904;13.396;2023-02-26T05:03:10;101069.25;;;-3.40;100.00
13422;BME280;6782;55.904;13.396;2023-02-26T05:05:38;101086.03;;;-3.28;100.00
13422;BME280;6782;55.904;13.396;2023-02-26T05:08:05;101081.53;;;-3.33;100.00
13422;BME280;6782;55.904;13.396;2023-02-26T05:10:32;101080.78;;;-3.31;100.00
13422;BME280;6782;55.904;13.396;2023-02-26T05:13:01;101084.88;;;-3.36;100.00
13422;BME280;6782;55.904;13.396;2023-02-26T05:15:28;101091.91;;;-3.32;100.00
13422;BME280;6782;55.904;13.396;2023-02-26T05:17:55;101082.84;;;-3.44;100.00
13422;BME280;6782;55.904;13.396;2023-02-26T05:20:22;101086.28;;;-3.44;100.00
13422;BME280;6782;55.904;13.396;2023-02-26T05:22:50;101087.00;;;-3.48;100.00
13422;BME280;6782;55.904;13.396;2023-02-26T05:25:18;101090.28;;;-3.52;100.00
13422;BME280;6782;55.904;13.396;2023-02-26T05:27:46;101092.97;;;-3.49;100.00
13422;BME280;6782;55.904;13.396;2023-02-26T05:30:15;101104.25;;;-3.47;100.00
13422;BME280;6782;55.904;13.396;2023-02-26T05:32:44;101113.59;;;-3.49;100.00
13422;BME280;6782;55.904;13.396;2023-02-26T05:35:11;101120.47;;;-3.49;100.00
13422;BME280;6782;55.904;13.396;2023-02-26T05:37:39;101119.34;;;-3.56;100.00
13422;BME280;6782;55.904;13.396;2023-02-26T05:40:08;101139.44;;;-3.47;100.00
13422;BME280;6782;55.904;13.396;2023-02-26T05:42:36;101139.34;;;-3.49;100.00
13422;BME280;6782;55.904;13.396;2023-02-26T05:45:06;101141.47;;;-3.61;100.00
13422;BME280;6782;55.904;13.396;2023-02-26T05:47:35;101144.75;;;-3.65;100.00
13422;BME280;6782;55.904;13.396;2023-02-26T05:50:04;101147.66;;;-3.78;100.00
13422;BME280;6782;55.904;13.396;2023-02-26T05:52:31;101149.94;;;-3.86;100.00
13422;BME280;6782;55.904;13.396;2023-02-26T05:54:59;101161.47;;;-3.76;100.00
13422;BME280;6782;55.904;13.396;2023-02-26T05:57:27;101179.78;;;-3.70;100.00
13422;BME280;6782;55.904;13.396;2023-02-26T05:59:54;101173.56;;;-3.75;100.00
13422;BME280;6782;55.904;13.396;2023-02-26T06:02:21;101184.84;;;-3.71;100.00
13422;BME280;6782;55.904;13.396;2023-02-26T06:04:50;101201.00;;;-3.55;100.00
13422;BME280;6782;55.904;13.396;2023-02-26T06:07:17;101213.34;;;-3.46;100.00
13422;BME280;6782;55.904;13.396;2023-02-26T06:09:44;101215.63;;;-3.54;100.00
13422;BME280;6782;55.904;13.396;2023-02-26T06:12:11;101230.78;;;-3.41;100.00
13422;BME280;6782;55.904;13.396;2023-02-26T06:14:38;101237.75;;;-3.38;100.00
13422;BME280;6782;55.904;13.396;2023-02-26T06:17:04;101251.22;;;-3.25;100.00
13422;BME280;6782;55.904;13.396;2023-02-26T06:19:32;101254.97;;;-3.17;100.00
13422;BME280;6782;55.904;13.396;2023-02-26T06:22:02;101239.13;;;-3.26;100.00
13422;BME280;6782;55.904;13.396;2023-02-26T06:24:30;101241.91;;;-3.21;100.00
13422;BME280;6782;55.904;13.396;2023-02-26T06:26:57;101258.63;;;-3.11;100.00
13422;BME280;6782;55.904;13.396;2023-02-26T06:29:24;101240.75;;;-3.28;100.00
13422;BME280;6782;55.904;13.396;2023-02-26T06:31:51;101252.97;;;-3.24;100.00
13422;BME280;6782;55.904;13.396;2023-02-26T06:34:19;101264.34;;;-3.19;100.00
13422;BME280;6782;55.904;13.396;2023-02-26T06:36:47;101264.91;;;-3.26;100.00
13422;BME280;6782;55.904;13.396;2023-02-26T06:39:16;101286.28;;;-3.07;100.00
13422;BME280;6782;55.904;13.396;2023-02-26T06:41:44;101295.06;;;-3.02;100.00
13422;BME280;6782;55.904;13.396;2023-02-26T06:44:11;101298.72;;;-2.97;100.00
13422;BME280;6782;55.904;13.396;2023-02-26T06:46:38;101300.63;;;-2.93;100.00
13422;BME280;6782;55.904;13.396;2023-02-26T06:49:06;101309.16;;;-2.94;100.00
13422;BME280;6782;55.904;13.396;2023-02-26T06:51:43;101311.16;;;-2.87;100.00
13422;BME280;6782;55.904;13.396;2023-02-26T06:54:11;101317.22;;;-2.87;100.00
13422;BME280;6782;55.904;13.396;2023-02-26T06:56:40;101334.63;;;-2.81;100.00
13422;BME280;6782;55.904;13.396;2023-02-26T06:59:07;101342.63;;;-2.75;100.00
13422;BME280;6782;55.904;13.396;2023-02-26T07:01:34;101351.78;;;-2.61;100.00
13422;BME280;6782;55.904;13.396;2023-02-26T07:04:04;101350.03;;;-2.62;100.00
13422;BME280;6782;55.904;13.396;2023-02-26T07:06:36;101353.56;;;-2.60;100.00
13422;BME280;6782;55.904;13.396;2023-02-26T07:09:04;101358.88;;;-2.56;100.00
13422;BME280;6782;55.904;13.396;2023-02-26T07:11:31;101371.09;;;-2.52;100.00
13422;BME280;6782;55.904;13.396;2023-02-26T07:14:11;101379.97;;;-2.45;100.00
13422;BME280;6782;55.904;13.396;2023-02-26T07:16:39;101391.53;;;-2.35;100.00
13422;BME280;6782;55.904;13.396;2023-02-26T07:19:07;101393.50;;;-2.28;100.00
13422;BME280;6782;55.904;13.396;2023-02-26T07:21:34;101398.81;;;-2.25;100.00
13422;BME280;6782;55.904;13.396;2023-02-26T07:24:01;101404.47;;;-2.13;100.00
13422;BME280;6782;55.904;13.396;2023-02-26T07:26:29;101421.47;;;-2.18;100.00
13422;BME280;6782;55.904;13.396;2023-02-26T07:28:56;101422.72;;;-2.09;100.00
13422;BME280;6782;55.904;13.396;2023-02-26T07:31:24;101426.19;;;-2.08;100.00
13422;BME280;6782;55.904;13.396;2023-02-26T07:33:52;101419.28;;;-2.08;100.00
13422;BME280;6782;55.904;13.396;2023-02-26T07:36:20;101429.28;;;-1.95;100.00
13422;BME280;6782;55.904;13.396;2023-02-26T07:38:47;101439.97;;;-1.85;100.00
13422;BME280;6782;55.904;13.396;2023-02-26T07:41:14;101440.78;;;-1.86;100.00
13422;BME280;6782;55.904;13.396;2023-02-26T07:43:41;101443.66;;;-1.79;100.00
13422;BME280;6782;55.904;13.396;2023-02-26T07:46:09;101442.84;;;-1.78;100.00
13422;BME280;6782;55.904;13.396;2023-02-26T07:48:37;101450.91;;;-1.69;100.00
13422;BME280;6782;55.904;13.396;2023-02-26T07:51:06;101450.03;;;-1.69;100.00
13422;BME280;6782;55.904;13.396;2023-02-26T07:53:36;101440.69;;;-1.66;100.00
13422;BME280;6782;55.904;13.396;2023-02-26T07:56:04;101455.72;;;-1.56;100.00
13422;BME280;6782;55.904;13.396;2023-02-26T07:58:32;101462.81;;;-1.50;100.00
13422;BME280;6782;55.904;13.396;2023-02-26T08:00:59;101454.25;;;-1.49;100.00
13422;BME280;6782;55.904;13.396;2023-02-26T08:03:26;101459.50;;;-1.46;100.00
13422;BME280;6782;55.904;13.396;2023-02-26T08:05:55;101471.25;;;-1.32;100.00
13422;BME280;6782;55.904;13.396;2023-02-26T08:08:25;101466.09;;;-1.32;100.00
13422;BME280;6782;55.904;13.396;2023-02-26T08:10:52;101460.28;;;-1.25;100.00
13422;BME280;6782;55.904;13.396;2023-02-26T08:13:19;101464.03;;;-1.17;100.00
13422;BME280;6782;55.904;13.396;2023-02-26T08:15:46;101473.19;;;-1.03;100.00
13422;BME280;6782;55.904;13.396;2023-02-26T08:18:13;101462.38;;;-1.15;100.00
13422;BME280;6782;55.904;13.396;2023-02-26T08:20:41;101449.53;;;-1.12;100.00
13422;BME280;6782;55.904;13.396;2023-02-26T08:23:10;101464.63;;;-1.00;100.00
13422;BME280;6782;55.904;13.396;2023-02-26T08:25:38;101449.91;;;-1.01;100.00
13422;BME280;6782;55.904;13.396;2023-02-26T08:28:06;101443.97;;;-0.99;100.00
13422;BME280;6782;55.904;13.396;2023-02-26T08:30:33;101458.34;;;-0.82;100.00
13422;BME280;6782;55.904;13.396;2023-02-26T08:32:59;101457.56;;;-0.79;100.00
13422;BME280;6782;55.904;13.396;2023-02-26T08:35:45;101453.59;;;-0.70;100.00
13422;BME280;6782;55.904;13.396;2023-02-26T08:38:34;101460.63;;;-0.66;100.00
13422;BME280;6782;55.904;13.396;2023-02-26T08:41:22;101448.84;;;-0.56;100.00
13422;BME280;6782;55.904;13.396;2023-02-26T08:44:09;101443.91;;;-0.48;100.00
13422;BME280;6782;55.904;13.396;2023-02-26T08:46:56;101445.13;;;-0.39;100.00
13422;BME280;6782;55.904;13.396;2023-02-26T08:49:43;101439.31;;;-0.30;100.00
13422;BME280;6782;55.904;13.396;2023-02-26T08:52:31;101444.91;;;-0.18;100.00
13422;BME280;6782;55.904;13.396;2023-02-26T08:55:20;101431.09;;;-0.17;100.00
13422;BME280;6782;55.904;13.396;2023-02-26T08:58:08;101440.34;;;0.03;100.00
13422;BME280;6782;55.904;13.396;2023-02-26T09:00:55;101429.06;;;0.01;100.00
13422;BME280;6782;55.904;13.396;2023-02-26T09:03:42;101432.78;;;0.09;100.00
13422;BME280;6782;55.904;13.396;2023-02-26T09:06:30;101431.44;;;0.23;100.00
13422;BME280;6782;55.904;13.396;2023-02-26T09:09:17;101418.44;;;0.22;100.00
13422;BME280;6782;55.904;13.396;2023-02-26T09:12:07;101419.53;;;0.28;100.00
13422;BME280;6782;55.904;13.396;2023-02-26T09:14:54;101404.78;;;0.27;100.00
13422;BME280;6782;55.904;13.396;2023-02-26T09:17:43;101389.91;;;0.22;100.00
13422;BME280;6782;55.904;13.396;2023-02-26T09:20:31;101394.81;;;0.42;100.00
13422;BME280;6782;55.904;13.396;2023-02-26T09:23:18;101387.22;;;0.48;100.00
13422;BME280;6782;55.904;13.396;2023-02-26T09:26:05;101375.97;;;0.48;100.00
13422;BME280;6782;55.904;13.396;2023-02-26T09:28:55;101364.69;;;0.47;100.00
13422;BME280;6782;55.904;13.396;2023-02-26T09:31:42;101356.28;;;0.56;100.00
13422;BME280;6782;55.904;13.396;2023-02-26T09:34:30;101353.91;;;0.63;100.00
13422;BME280;6782;55.904;13.396;2023-02-26T09:37:18;101356.88;;;0.79;100.00
13422;BME280;6782;55.904;13.396;2023-02-26T09:40:06;101352.84;;;0.90;100.00
13422;BME280;6782;55.904;13.396;2023-02-26T09:43:06;101329.22;;;0.79;100.00
13422;BME280;6782;55.904;13.396;2023-02-26T09:46:07;101355.13;;;1.12;100.00
13422;BME280;6782;55.904;13.396;2023-02-26T09:49:04;101337.94;;;1.17;100.00
13422;BME280;6782;55.904;13.396;2023-02-26T09:52:00;101327.69;;;1.23;100.00
13422;BME280;6782;55.904;13.396;2023-02-26T09:54:51;101320.94;;;1.31;100.00
13422;BME280;6782;55.904;13.396;2023-02-26T09:57:42;101312.31;;;1.32;100.00
13422;BME280;6782;55.904;13.396;2023-02-26T10:00:35;101303.88;;;1.42;100.00
13422;BME280;6782;55.904;13.396;2023-02-26T10:03:30;101299.97;;;1.61;100.00
13422;BME280;6782;55.904;13.396;2023-02-26T10:06:23;101273.03;;;1.57;100.00
13422;BME280;6782;55.904;13.396;2023-02-26T10:09:29;101263.75;;;1.70;100.00
13422;BME280;6782;55.904;13.396;2023-02-26T10:12:21;101265.97;;;1.92;100.00
13422;BME280;6782;55.904;13.396;2023-02-26T10:15:13;101245.81;;;1.82;100.00
13422;BME280;6782;55.904;13.396;2023-02-26T10:18:06;101220.81;;;1.90;100.00
13422;BME280;6782;55.904;13.396;2023-02-26T10:20:59;101203.63;;;1.98;100.00
13422;BME280;6782;55.904;13.396;2023-02-26T10:23:52;101183.78;;;2.03;100.00
13422;BME280;6782;55.904;13.396;2023-02-26T10:26:44;101161.25;;;2.04;100.00
13422;BME280;6782;55.904;13.396;2023-02-26T10:29:39;101138.91;;;2.15;100.00
13422;BME280;6782;55.904;13.396;2023-02-26T10:32:34;101148.81;;;2.37;100.00
13422;BME280;6782;55.904;13.396;2023-02-26T10:35:26;101111.44;;;2.32;100.00
13422;BME280;6782;55.904;13.396;2023-02-26T10:38:18;101101.25;;;2.47;100.00
13422;BME280;6782;55.904;13.396;2023-02-26T10:41:11;101084.06;;;2.58;100.00
13422;BME280;6782;55.904;13.396;2023-02-26T10:44:05;101075.59;;;2.73;100.00
13422;BME280;6782;55.904;13.396;2023-02-26T10:47:00;100982.44;;;2.50;100.00
13422;BME280;6782;55.904;13.396;2023-02-26T10:49:52;100971.34;;;2.65;100.00
13422;BME280;6782;55.904;13.396;2023-02-26T10:52:42;100934.84;;;2.62;100.00
13422;BME280;6782;55.904;13.396;2023-02-26T10:55:38;100917.69;;;2.76;100.00
13422;BME280;6782;55.904;13.396;2023-02-26T10:58:27;100899.59;;;2.91;100.00
13422;BME280;6782;55.904;13.396;2023-02-26T11:01:16;100869.34;;;3.05;100.00
13422;BME280;6782;55.904;13.396;2023-02-26T11:04:08;100771.06;;;2.88;100.00
13422;BME280;6782;55.904;13.396;2023-02-26T11:06:58;100726.81;;;2.89;100.00
13422;BME280;6782;55.904;13.396;2023-02-26T11:09:46;100728.69;;;3.11;100.00
13422;BME280;6782;55.904;13.396;2023-02-26T11:12:35;100628.75;;;2.96;100.00
13422;BME280;6782;55.904;13.396;2023-02-26T11:15:25;100612.31;;;3.07;100.00
13422;BME280;6782;55.904;13.396;2023-02-26T11:18:15;100611.53;;;3.25;100.00
13422;BME280;6782;55.904;13.396;2023-02-26T11:20:45;100583.75;;;3.26;100.00
13422;BME280;6782;55.904;13.396;2023-02-26T11:23:16;100600.31;;;3.46;100.00
13422;BME280;6782;55.904;13.396;2023-02-26T11:25:45;100537.75;;;3.49;100.00
13422;BME280;6782;55.904;13.396;2023-02-26T11:28:31;100529.06;;;3.56;100.00
13422;BME280;6782;55.904;13.396;2023-02-26T11:31:04;100463.88;;;3.35;100.00
13422;BME280;6782;55.904;13.396;2023-02-26T11:33:35;100454.31;;;3.43;100.00
13422;BME280;6782;55.904;13.396;2023-02-26T11:36:08;100372.69;;;3.29;100.00
13422;BME280;6782;55.904;13.396;2023-02-26T11:38:37;100476.94;;;3.71;100.00
13422;BME280;6782;55.904;13.396;2023-02-26T11:41:05;100389.16;;;3.50;100.00
13422;BME280;6782;55.904;13.396;2023-02-26T11:43:39;100468.22;;;3.81;100.00
13422;BME280;6782;55.904;13.396;2023-02-26T11:46:08;100306.59;;;3.63;100.00
13422;BME280;6782;55.904;13.396;2023-02-26T11:48:40;100261.41;;;3.67;100.00
13422;BME280;6782;55.904;13.396;2023-02-26T11:51:11;100266.56;;;3.76;100.00
13422;BME280;6782;55.904;13.396;2023-02-26T11:53:43;100233.53;;;3.73;100.00
13422;BME280;6782;55.904;13.396;2023-02-26T11:56:19;100202.22;;;3.78;100.00
13422;BME280;6782;55.904;13.396;2023-02-26T11:58:52;100216.94;;;3.93;100.00
13422;BME280;6782;55.904;13.396;2023-02-26T12:01:20;100132.59;;;3.95;100.00
13422;BME280;6782;55.904;13.396;2023-02-26T12:03:52;100075.25;;;3.86;100.00
13422;BME280;6782;55.904;13.396;2023-02-26T12:06:23;99998.00;;;3.74;100.00
13422;BME280;6782;55.904;13.396;2023-02-26T12:08:50;100067.41;;;3.92;100.00
13422;BME280;6782;55.904;13.396;2023-02-26T12:11:48;100054.38;;;3.92;100.00
13422;BME280;6782;55.904;13.396;2023-02-26T12:14:32;100036.09;;;3.95;100.00
13422;BME280;6782;55.904;13.396;2023-02-26T12:17:11;100069.03;;;4.05;100.00
13422;BME280;6782;55.904;13.396;2023-02-26T12:19:49;100000.41;;;4.00;100.00
13422;BME280;6782;55.904;13.396;2023-02-26T12:22:29;99953.53;;;3.90;100.00
13422;BME280;6782;55.904;13.396;2023-02-26T12:25:21;99965.53;;;4.07;100.00
13422;BME280;6782;55.904;13.396;2023-02-26T12:28:06;100005.38;;;4.24;100.00
13422;BME280;6782;55.904;13.396;2023-02-26T12:30:53;99868.03;;;4.17;100.00
13422;BME280;6782;55.904;13.396;2023-02-26T12:33:31;99810.50;;;4.26;100.00
13422;BME280;6782;55.904;13.396;2023-02-26T12:36:12;99813.06;;;4.31;100.00
13422;BME280;6782;55.904;13.396;2023-02-26T12:38:50;99709.88;;;4.07;100.00
13422;BME280;6782;55.904;13.396;2023-02-26T12:41:28;99760.97;;;4.23;100.00
13422;BME280;6782;55.904;13.396;2023-02-26T12:44:13;99815.50;;;4.43;100.00
13422;BME280;6782;55.904;13.396;2023-02-26T12:46:57;99699.94;;;4.33;100.00
13422;BME280;6782;55.904;13.396;2023-02-26T12:49:38;99676.44;;;4.33;100.00
13422;BME280;6782;55.904;13.396;2023-02-26T12:52:22;99607.94;;;4.19;100.00
13422;BME280;6782;55.904;13.396;2023-02-26T12:55:13;99716.66;;;4.20;100.00
13422;BME280;6782;55.904;13.396;2023-02-26T12:58:01;99656.72;;;4.16;100.00
13422;BME280;6782;55.904;13.396;2023-02-26T13:00:45;99627.13;;;4.18;100.00
13422;BME280;6782;55.904;13.396;2023-02-26T13:06:43;99815.56;;;4.38;100.00
13422;BME280;6782;55.904;13.396;2023-02-26T13:09:24;99718.31;;;4.24;100.00
13422;BME280;6782;55.904;13.396;2023-02-26T13:12:06;99797.34;;;4.34;100.00
13422;BME280;6782;55.904;13.396;2023-02-26T13:14:48;99826.91;;;4.36;100.00
13422;BME280;6782;55.904;13.396;2023-02-26T13:17:24;99781.69;;;4.34;100.00
13422;BME280;6782;55.904;13.396;2023-02-26T13:19:55;99751.16;;;4.40;100.00
13422;BME280;6782;55.904;13.396;2023-02-26T13:22:28;99678.25;;;4.28;100.00
13422;BME280;6782;55.904;13.396;2023-02-26T13:25:03;99711.16;;;4.38;100.00
13422;BME280;6782;55.904;13.396;2023-02-26T13:27:33;99797.91;;;4.56;100.00
13422;BME280;6782;55.904;13.396;2023-02-26T13:30:17;99603.47;;;4.27;100.00
13422;BME280;6782;55.904;13.396;2023-02-26T13:32:47;99718.72;;;4.55;100.00